Arlington, MA

6:07 PM EDT on May 27, 2015 (GMT -0400)
Norwood Memorial | | Change Station
CLOSE
Current Station
Airport
Location: Norwood,
Elevation: 49 ft
Nearby Weather Stations

Elev 49 ft 42.19 °N, 71.17 °W | Updated 14 minutes ago

Partly Cloudy
Partly Cloudy
77 °F
Feels Like 77 °F
N
18
Wind Variable Wind from SSW
Gusts 31 mph

Today
High -- | Low -- °F
--% Chance of Precip.
Yesterday
High -- | Low -- °F
Precip. -- in
5:13 AM 8:10 PM
Waxing Gibbous, 70% visible
Pressure 30.09 in
Visibility 10.0 miles
Clouds Few 2700 ft
Dew Point 65 °F
Humidity 66%
Rainfall 0.00 in
Snow Depth Not available.
UV 2 out of 12
Pollen 10.10 out of 12
Air Quality Not available.
Flu Activity Local Activity
METAR KOWD 272153Z 21016G27KT 10SM FEW027 25/18 A3009 RMK AO2 PK WND 20029/2112 SLP189 T02500183

More Conditions Fewer Conditions

Pressure 30.09 in
Visibility 10.0 miles
Clouds Few 2700 ft
Dew Point 65 °F
Humidity 66%
Rainfall 0.00 in
Snow Depth Not available.
UV 2 out of 12
Pollen 10.10 out of 12
Air Quality Not available.
Flu Activity Local Activity
METAR KOWD 272153Z 21016G27KT 10SM FEW027 25/18 A3009 RMK AO2 PK WND 20029/2112 SLP189 T02500183

More Conditions Fewer Conditions

10-Day Weather Forecast

Almanac

Astronomy

May. 27, 2015 Rise Set
Actual Time
Civil Twilight
Nautical Twilight
Astronomical Twilight
Moon
Length of Visible Light
Length of Day
Tomorrow will be .
, % of the Moon is Illuminated

Today's Extremes

State Highs State Lows

Community

WunderPhotos

Upload Photos

1,824,806 photos uploaded!

WunderBlogs® & News

Nearby

Air Quality

  Air Quality AQ Index Pollutant
Not available.

Snow Depth

Station Depth Elevation

Earthquake Activity

City Distance Mag. Time & Date
Minimum magnitude displayed is 2.5.

Coastal Water Temperatures

Place Temperature

Stations

Nearby Weather Stations

Station Location Temp. Windchill Dew Point Humidity Wind Precip. Elev Updated Type